Terminal Aerodrome Forecast
Issued by NWS

Home | Current Version | Previous Version | Text Only | Print | Product List | Glossary On
Versions: 1 2 3 4 5 6 7 8 9 10 11 12 13 14 15 16 17 18 19 20
000
FTUS43 KGRB 190500
TAFRHI
TAF
KRHI 190520Z 1906/2006 11004KT P6SM SCT090 BKN120
     FM191100 12009KT P6SM SCT080 BKN120 WS015/15035KT
     FM191500 15013G18KT P6SM SCT035 BKN090 PROB30 1915/1919 -SHRA
      BKN035 OVC070
     FM200000 17009KT P6SM SCT035 BKN070
     FM200400 18008KT P6SM -SHRA BKN035 OVC070=

USA.gov is the U.S. government's official web portal to all federal, state and local government web resources and services.